Time;durP1;ratioP1;P1;durP2;ratioP2;P2;SDS_P1;SDS_P2;PMS_P1;PMS_P2;Temp;Humidity;BMP_temperature;BMP_pressure;BME280_temperature;BME280_humidity;BME280_pressure;Samples;Min_cycle;Max_cycle;Signal;HPM_P1;HPM_P2
2022/07/02 00:00:21;;;;;;;1.23;0.55;;;;;;;12.78;100.00;99848.34;7399790;19;20528;-83
2022/07/02 00:02:51;;;;;;;0.45;0.35;;;;;;;12.75;100.00;99834.59;7395550;19;20023;-81
2022/07/02 00:05:21;;;;;;;0.17;0.15;;;;;;;12.70;100.00;99833.25;7395202;19;20088;-84
2022/07/02 00:07:48;;;;;;;0.32;0.30;;;;;;;12.66;100.00;99831.94;7397547;19;20029;-82
2022/07/02 00:10:14;;;;;;;0.38;0.30;;;;;;;12.61;100.00;99827.03;7397897;19;20341;-82
2022/07/02 00:12:40;;;;;;;2.63;0.20;;;;;;;12.60;100.00;99831.09;7394852;19;20091;-84
2022/07/02 00:15:07;;;;;;;1.08;0.98;;;;;;;12.57;100.00;99832.06;7394123;19;20014;-83
2022/07/02 00:17:33;;;;;;;7.75;0.22;;;;;;;12.56;100.00;99828.50;7396049;19;20025;-83
2022/07/02 00:20:01;;;;;;;11.18;1.17;;;;;;;12.61;100.00;99829.84;7397394;19;20444;-83
2022/07/02 00:22:28;;;;;;;0.17;0.15;;;;;;;12.64;100.00;99814.91;7396735;19;20010;-82
2022/07/02 00:24:54;;;;;;;0.85;0.70;;;;;;;12.64;100.00;99817.69;7397245;19;20025;-84
2022/07/02 00:27:21;;;;;;;0.38;0.38;;;;;;;12.66;100.00;99810.38;7400062;19;20026;-84
2022/07/02 00:30:00;;;;;;;0.40;0.40;;;;;;;12.70;100.00;99804.53;7424080;19;20015;-83
2022/07/02 00:32:29;;;;;;;4.30;0.30;;;;;;;12.67;100.00;99811.88;7404906;19;20023;-83
2022/07/02 00:34:57;;;;;;;0.20;0.20;;;;;;;12.77;100.00;99806.91;7394013;19;20101;-84
2022/07/02 00:37:25;;;;;;;0.80;0.30;;;;;;;12.83;100.00;99814.09;7395188;19;20094;-82
2022/07/02 00:39:51;;;;;;;0.28;0.20;;;;;;;12.88;100.00;99801.44;7397130;19;20479;-81
2022/07/02 00:42:19;;;;;;;0.70;0.10;;;;;;;12.88;100.00;99807.03;7395792;19;20015;-85
2022/07/02 00:44:47;;;;;;;0.55;0.20;;;;;;;12.98;100.00;99790.84;7395236;19;20025;-84
2022/07/02 00:47:15;;;;;;;0.68;0.30;;;;;;;13.01;100.00;99790.66;7394712;19;20460;-84
2022/07/02 00:49:41;;;;;;;0.55;0.55;;;;;;;12.91;100.00;99786.47;7394539;19;20042;-84
2022/07/02 00:52:08;;;;;;;0.30;0.30;;;;;;;12.88;100.00;99798.66;7392507;19;20480;-84
2022/07/02 00:54:37;;;;;;;0.20;0.10;;;;;;;12.84;100.00;99782.09;7393720;19;20025;-83
2022/07/02 00:57:04;;;;;;;1.55;0.50;;;;;;;12.82;100.00;99789.44;7394519;19;20018;-83
2022/07/02 00:59:31;;;;;;;0.63;0.40;;;;;;;12.78;100.00;99791.66;7394185;19;20042;-84
2022/07/02 01:01:58;;;;;;;0.20;0.20;;;;;;;12.73;100.00;99789.59;7394369;19;20022;-84
2022/07/02 01:04:29;;;;;;;0.47;0.20;;;;;;;12.78;100.00;99794.47;7393192;19;20029;-84
2022/07/02 01:07:04;;;;;;;0.10;0.10;;;;;;;12.80;100.00;99791.94;7393013;19;20014;-83
2022/07/02 01:12:25;;;;;;;0.20;0.20;;;;;;;12.74;100.00;99788.34;7394799;19;20015;-84
2022/07/02 01:14:55;;;;;;;0.35;0.35;;;;;;;12.61;100.00;99790.72;7393571;19;20477;-84
2022/07/02 01:17:22;;;;;;;0.50;0.20;;;;;;;12.46;100.00;99781.66;7393734;19;20014;-83
2022/07/02 01:19:48;;;;;;;0.20;0.15;;;;;;;12.31;100.00;99792.16;7397056;19;20010;-84
2022/07/02 01:22:21;;;;;;;3.75;1.05;;;;;;;12.14;100.00;99792.72;7394036;19;20027;-84
2022/07/02 01:24:50;;;;;;;0.77;0.60;;;;;;;12.00;100.00;99785.16;7393757;19;20015;-83
2022/07/02 01:27:18;;;;;;;0.60;0.40;;;;;;;11.86;100.00;99783.19;7391983;19;20017;-84
2022/07/02 01:29:44;;;;;;;5.93;0.40;;;;;;;11.76;100.00;99778.97;7394634;19;20037;-84
2022/07/02 01:32:11;;;;;;;0.40;0.40;;;;;;;11.64;100.00;99782.84;7393217;19;20026;-84
2022/07/02 01:34:39;;;;;;;0.40;0.40;;;;;;;11.54;100.00;99778.63;7392696;19;20098;-84
2022/07/02 01:37:11;;;;;;;1.85;1.23;;;;;;;11.49;100.00;99784.88;7394083;19;20018;-84
2022/07/02 01:39:38;;;;;;;1.65;0.57;;;;;;;11.39;100.00;99797.41;7395948;19;20014;-83
2022/07/02 01:42:06;;;;;;;0.40;0.10;;;;;;;11.31;100.00;99794.22;7392118;19;20022;-84
2022/07/02 01:44:34;;;;;;;0.20;0.20;;;;;;;11.23;100.00;99797.88;7393660;19;20018;-84
2022/07/02 01:47:09;;;;;;;0.52;0.50;;;;;;;11.16;100.00;99792.69;7391262;19;20022;-81
2022/07/02 01:49:36;;;;;;;0.35;0.35;;;;;;;10.97;100.00;99792.13;7395049;19;20051;-84
2022/07/02 01:52:04;;;;;;;0.77;0.63;;;;;;;10.91;100.00;99788.47;7390628;19;20018;-84
2022/07/02 01:54:31;;;;;;;1.45;0.28;;;;;;;10.89;100.00;99788.19;7390377;19;20412;-84
2022/07/02 01:56:58;;;;;;;0.20;0.20;;;;;;;10.92;100.00;99792.00;7392359;19;20019;-84
2022/07/02 01:59:25;;;;;;;0.52;0.30;;;;;;;10.91;100.00;99787.72;7394389;19;20018;-83
2022/07/02 02:01:51;;;;;;;0.30;0.30;;;;;;;10.86;100.00;99785.56;7391975;19;20010;-84
2022/07/02 02:04:17;;;;;;;0.70;0.28;;;;;;;10.80;100.00;99785.50;7390239;19;20018;-84
2022/07/02 02:06:43;;;;;;;0.47;0.40;;;;;;;10.68;100.00;99776.16;7390783;19;20021;-83
2022/07/02 02:09:10;;;;;;;0.40;0.40;;;;;;;10.60;100.00;99769.41;7392318;19;20022;-83
2022/07/02 02:11:36;;;;;;;0.35;0.30;;;;;;;10.53;100.00;99769.78;7388290;19;20074;-83
2022/07/02 02:14:02;;;;;;;0.52;0.40;;;;;;;10.49;100.00;99763.63;7391201;19;20014;-83
2022/07/02 02:16:30;;;;;;;0.20;0.20;;;;;;;10.50;100.00;99770.72;7390712;19;20015;-83
2022/07/02 02:18:58;;;;;;;0.55;0.50;;;;;;;10.50;100.00;99767.94;7393748;19;20034;-83
2022/07/02 02:21:26;;;;;;;0.43;0.20;;;;;;;10.50;100.00;99762.38;7390487;19;20029;-84
2022/07/02 02:23:53;;;;;;;0.28;0.28;;;;;;;10.50;100.00;99764.41;7392267;19;20027;-84
2022/07/02 02:26:20;;;;;;;0.10;0.10;;;;;;;10.46;100.00;99759.00;7390242;19;20022;-83
2022/07/02 02:28:46;;;;;;;1.00;0.17;;;;;;;10.49;100.00;99752.50;7391555;19;20476;-83
2022/07/02 02:31:13;;;;;;;0.10;0.10;;;;;;;10.50;100.00;99751.25;7388542;19;20015;-83
2022/07/02 02:33:39;;;;;;;0.47;0.20;;;;;;;10.53;100.00;99750.28;7391485;19;20025;-83
2022/07/02 02:36:05;;;;;;;0.32;0.32;;;;;;;10.63;100.00;99746.16;7390727;19;20464;-83
2022/07/02 02:38:31;;;;;;;1.13;0.47;;;;;;;10.75;100.00;99741.59;7394983;19;20007;-83
2022/07/02 02:40:57;;;;;;;0.38;0.35;;;;;;;10.86;100.00;99741.00;7389561;19;20006;-83
2022/07/02 02:43:24;;;;;;;0.17;0.17;;;;;;;10.97;100.00;99732.84;7390030;19;20374;-84
2022/07/02 02:45:50;;;;;;;0.52;0.50;;;;;;;11.12;100.00;99731.59;7391427;19;20499;-83
2022/07/02 02:48:16;;;;;;;2.05;0.50;;;;;;;11.26;100.00;99730.03;7391523;19;20021;-83
2022/07/02 02:50:42;;;;;;;2.15;0.88;;;;;;;11.35;100.00;99727.13;7388774;19;20011;-84
2022/07/02 02:53:08;;;;;;;0.10;0.10;;;;;;;11.45;100.00;99736.91;7390191;19;20014;-83
2022/07/02 02:55:34;;;;;;;0.10;0.10;;;;;;;11.56;100.00;99731.50;7388471;19;20023;-84
2022/07/02 02:58:00;;;;;;;0.10;0.10;;;;;;;11.69;100.00;99731.19;7389983;19;20033;-83
2022/07/02 03:00:27;;;;;;;0.25;0.25;;;;;;;11.81;100.00;99730.84;7394939;19;20015;-83
2022/07/02 03:02:53;;;;;;;0.43;0.43;;;;;;;11.95;100.00;99716.06;7389773;19;20034;-84
2022/07/02 03:05:19;;;;;;;0.47;0.22;;;;;;;12.12;100.00;99722.66;7390673;19;20039;-84
2022/07/02 03:07:45;;;;;;;0.38;0.10;;;;;;;12.16;100.00;99714.81;7390542;19;20372;-83
2022/07/02 03:10:12;;;;;;;0.10;0.10;;;;;;;12.24;100.00;99714.38;7391634;19;20047;-83
2022/07/02 03:12:38;;;;;;;1.23;0.22;;;;;;;12.30;100.00;99715.97;7390041;19;20027;-84
2022/07/02 03:15:05;;;;;;;0.20;0.20;;;;;;;12.36;100.00;99724.44;7387493;19;20015;-84
2022/07/02 03:17:31;;;;;;;0.90;0.35;;;;;;;12.44;100.00;99715.13;7390046;19;20326;-84
2022/07/02 03:19:58;;;;;;;0.30;0.30;;;;;;;12.47;100.00;99718.97;7394032;19;20023;-84
2022/07/02 03:22:24;;;;;;;0.40;0.35;;;;;;;12.50;100.00;99723.56;7396282;19;20015;-84
2022/07/02 03:24:50;;;;;;;0.20;0.20;;;;;;;12.51;100.00;99719.53;7398074;19;20517;-84
2022/07/02 03:27:16;;;;;;;0.20;0.10;;;;;;;12.52;100.00;99716.22;7396459;19;20363;-83
2022/07/02 03:29:42;;;;;;;1.80;0.20;;;;;;;12.48;100.00;99712.09;7399850;19;20014;-83
2022/07/02 03:32:08;;;;;;;0.10;0.10;;;;;;;12.41;100.00;99712.56;7395463;19;20019;-83
2022/07/02 03:34:35;;;;;;;3.58;0.63;;;;;;;12.32;100.00;99701.53;7397490;19;20018;-84
2022/07/02 03:37:01;;;;;;;0.17;0.17;;;;;;;12.28;100.00;99706.59;7396233;19;20496;-85
2022/07/02 03:39:29;;;;;;;3.65;0.45;;;;;;;12.23;100.00;99694.09;7398991;19;20015;-83
2022/07/02 03:41:55;;;;;;;1.85;0.20;;;;;;;12.24;100.00;99709.56;7397839;19;20018;-83
2022/07/02 03:44:21;;;;;;;0.63;0.10;;;;;;;12.24;100.00;99700.41;7395543;19;20014;-84
2022/07/02 03:46:47;;;;;;;14.80;0.47;;;;;;;12.33;100.00;99706.63;7396616;19;20470;-83
2022/07/02 03:49:13;;;;;;;0.10;0.10;;;;;;;12.44;100.00;99708.78;7398982;19;20031;-83
2022/07/02 03:51:40;;;;;;;20.08;0.95;;;;;;;12.50;100.00;99704.00;7394578;19;20019;-84
2022/07/02 03:54:06;;;;;;;0.10;0.10;;;;;;;12.59;100.00;99709.44;7396987;19;20510;-83
2022/07/02 03:56:32;;;;;;;2.05;0.73;;;;;;;12.64;100.00;99712.31;7397001;19;20015;-83
2022/07/02 03:58:58;;;;;;;8.30;0.30;;;;;;;12.71;100.00;99708.31;7398365;19;20047;-83
2022/07/02 04:01:24;;;;;;;0.32;0.20;;;;;;;12.73;100.00;99714.16;7394168;19;20410;-84
2022/07/02 04:03:50;;;;;;;0.85;0.75;;;;;;;12.78;100.00;99716.22;7396568;19;20011;-83
2022/07/02 04:06:16;;;;;;;0.52;0.32;;;;;;;12.80;100.00;99713.69;7395100;19;20010;-83
2022/07/02 04:08:43;;;;;;;0.25;0.25;;;;;;;12.84;100.00;99715.00;7397889;19;20037;-83
2022/07/02 04:11:09;;;;;;;0.88;0.73;;;;;;;12.91;100.00;99714.56;7393341;19;20587;-83
2022/07/02 04:13:35;;;;;;;5.28;0.45;;;;;;;13.01;100.00;99717.97;7396388;19;20102;-83
2022/07/02 04:16:01;;;;;;;0.10;0.10;;;;;;;13.11;100.00;99722.13;7391662;19;20618;-83
2022/07/02 04:18:27;;;;;;;2.30;0.20;;;;;;;13.18;100.00;99716.09;7395574;19;20019;-84
2022/07/02 04:20:53;;;;;;;0.47;0.47;;;;;;;13.18;100.00;99718.13;7392136;19;20021;-84
2022/07/02 04:23:20;;;;;;;1.70;0.32;;;;;;;13.19;100.00;99714.81;7395347;19;20007;-83
2022/07/02 04:25:46;;;;;;;0.20;0.20;;;;;;;13.26;100.00;99708.00;7395647;19;20015;-83
2022/07/02 04:28:12;;;;;;;0.45;0.10;;;;;;;13.18;100.00;99710.50;7394957;19;20015;-84
2022/07/02 04:30:38;;;;;;;0.20;0.10;;;;;;;13.13;100.00;99708.44;7392920;19;20006;-85
2022/07/02 04:33:05;;;;;;;2.05;0.40;;;;;;;13.05;100.00;99698.97;7393428;19;20022;-85
2022/07/02 04:35:31;;;;;;;0.15;0.15;;;;;;;13.02;100.00;99702.72;7393333;19;20352;-85
2022/07/02 04:37:57;;;;;;;0.10;0.10;;;;;;;13.03;100.00;99709.84;7398129;19;20017;-85
2022/07/02 04:40:23;;;;;;;0.10;0.10;;;;;;;13.09;100.00;99713.47;7399546;19;20021;-85
2022/07/02 04:42:50;;;;;;;0.30;0.10;;;;;;;13.14;100.00;99715.56;7393393;19;20006;-84
2022/07/02 04:45:16;;;;;;;0.93;0.43;;;;;;;13.08;100.00;99711.94;7395542;19;20010;-85
2022/07/02 04:47:42;;;;;;;0.73;0.28;;;;;;;13.09;100.00;99707.91;7394268;19;20019;-85
2022/07/02 04:50:09;;;;;;;0.25;0.10;;;;;;;13.08;100.00;99709.16;7398262;19;20039;-85
2022/07/02 04:52:35;;;;;;;0.45;0.30;;;;;;;13.15;100.00;99708.69;7395557;19;20122;-84
2022/07/02 04:55:01;;;;;;;0.65;0.38;;;;;;;13.18;100.00;99712.53;7394436;19;20026;-84
2022/07/02 04:57:27;;;;;;;0.20;0.13;;;;;;;13.20;100.00;99712.81;7394941;19;20014;-84
2022/07/02 04:59:53;;;;;;;0.10;0.10;;;;;;;13.20;100.00;99710.78;7396689;19;20035;-85
2022/07/02 05:02:19;;;;;;;0.10;0.10;;;;;;;13.24;100.00;99719.72;7393308;19;20011;-85
2022/07/02 05:04:45;;;;;;;1.65;0.50;;;;;;;13.26;100.00;99708.00;7392907;19;20365;-85
2022/07/02 05:07:11;;;;;;;0.82;0.35;;;;;;;13.25;100.00;99715.66;7394223;19;20536;-85
2022/07/02 05:09:38;;;;;;;0.10;0.10;;;;;;;13.25;100.00;99707.28;7395518;19;20022;-85
2022/07/02 05:12:04;;;;;;;0.57;0.28;;;;;;;13.28;100.00;99708.28;7393443;19;20006;-84
2022/07/02 05:14:31;;;;;;;1.45;0.40;;;;;;;13.43;100.00;99709.66;7391007;19;20018;-84
2022/07/02 05:16:57;;;;;;;1.10;0.30;;;;;;;13.52;100.00;99717.88;7391988;19;20026;-85
2022/07/02 05:19:23;;;;;;;0.75;0.20;;;;;;;13.50;100.00;99709.22;7393906;19;20090;-85
2022/07/02 05:21:49;;;;;;;0.52;0.17;;;;;;;13.61;100.00;99709.28;7392880;19;20021;-84
2022/07/02 05:24:15;;;;;;;0.10;0.10;;;;;;;13.67;100.00;99712.88;7392309;19;20022;-84
2022/07/02 05:26:41;;;;;;;0.10;0.10;;;;;;;13.69;100.00;99707.53;7393925;19;20017;-85
2022/07/02 05:29:07;;;;;;;0.30;0.10;;;;;;;13.74;100.00;99705.28;7394138;19;20078;-84
2022/07/02 05:31:34;;;;;;;0.82;0.20;;;;;;;13.74;100.00;99706.03;7391059;19;20014;-85
2022/07/02 05:34:00;;;;;;;2.28;0.45;;;;;;;13.79;100.00;99713.72;7392930;19;20011;-84
2022/07/02 05:36:26;;;;;;;1.65;0.15;;;;;;;13.82;100.00;99711.94;7392030;19;20019;-85
2022/07/02 05:38:52;;;;;;;0.10;0.10;;;;;;;13.86;100.00;99713.22;7397103;19;20393;-83
2022/07/02 05:41:18;;;;;;;1.10;0.20;;;;;;;13.90;100.00;99707.41;7394089;19;20006;-82
2022/07/02 05:43:44;;;;;;;0.82;0.63;;;;;;;13.92;100.00;99708.44;7393555;19;20022;-82
2022/07/02 05:46:10;;;;;;;1.10;0.43;;;;;;;13.99;100.00;99712.78;7393419;19;20022;-84
2022/07/02 05:48:36;;;;;;;0.68;0.20;;;;;;;14.11;100.00;99705.94;7394630;19;20033;-83
2022/07/02 05:51:03;;;;;;;1.75;0.30;;;;;;;14.20;100.00;99708.53;7392365;19;20023;-83
2022/07/02 05:53:29;;;;;;;0.17;0.10;;;;;;;14.22;100.00;99709.56;7391723;19;20014;-84
2022/07/02 05:55:55;;;;;;;0.15;0.15;;;;;;;14.26;100.00;99717.72;7391512;19;20011;-83
2022/07/02 05:58:21;;;;;;;0.10;0.10;;;;;;;14.22;100.00;99715.19;7393546;19;20334;-83
2022/07/02 06:00:48;;;;;;;0.10;0.10;;;;;;;14.21;100.00;99718.47;7390594;19;20010;-85
2022/07/02 06:03:14;;;;;;;0.10;0.10;;;;;;;14.20;100.00;99728.91;7391345;19;20011;-85
2022/07/02 06:08:25;;;;;;;0.10;0.10;;;;;;;14.11;100.00;99726.31;7391399;19;20014;-84
2022/07/02 06:10:52;;;;;;;0.35;0.20;;;;;;;14.11;100.00;99728.34;7390220;19;20018;-83
2022/07/02 06:13:19;;;;;;;0.20;0.17;;;;;;;14.10;100.00;99738.00;7392603;19;20025;-84
2022/07/02 06:15:45;;;;;;;4.65;0.30;;;;;;;14.11;100.00;99734.72;7389444;19;20017;-83
2022/07/02 06:18:12;;;;;;;0.47;0.05;;;;;;;14.12;100.00;99729.91;7391079;19;20015;-84
2022/07/02 06:20:39;;;;;;;0.15;0.15;;;;;;;14.14;100.00;99728.09;7389776;19;20105;-83
2022/07/02 06:23:05;;;;;;;1.40;0.40;;;;;;;14.24;100.00;99732.25;7390005;19;20022;-83
2022/07/02 06:25:32;;;;;;;0.47;0.10;;;;;;;14.35;100.00;99731.53;7389873;19;20390;-83
2022/07/02 06:27:58;;;;;;;0.10;0.10;;;;;;;14.39;100.00;99743.25;7392001;19;20090;-82
2022/07/02 06:30:24;;;;;;;0.85;0.20;;;;;;;14.51;100.00;99749.69;7395317;19;20379;-82
2022/07/02 06:32:50;;;;;;;0.20;0.20;;;;;;;14.45;100.00;99746.84;7392532;19;20078;-82
2022/07/02 06:35:17;;;;;;;0.20;0.20;;;;;;;14.39;100.00;99754.47;7390495;19;20033;-81
2022/07/02 06:37:43;;;;;;;2.20;0.20;;;;;;;14.42;100.00;99759.81;7391806;19;20011;-81
2022/07/02 06:40:10;;;;;;;0.17;0.10;;;;;;;14.52;100.00;99756.81;7396111;19;20014;-81
2022/07/02 06:42:36;;;;;;;0.20;0.10;;;;;;;14.60;100.00;99764.22;7391531;19;20029;-80
2022/07/02 06:45:02;;;;;;;0.95;0.20;;;;;;;14.60;100.00;99760.63;7389419;19;20388;-81
2022/07/02 06:47:30;;;;;;;1.48;0.20;;;;;;;14.59;100.00;99751.47;7390123;19;20011;-81
2022/07/02 06:49:57;;;;;;;0.13;0.13;;;;;;;14.59;100.00;99756.31;7392237;19;20019;-81
2022/07/02 06:52:25;;;;;;;0.20;0.10;;;;;;;14.66;100.00;99750.97;7390521;19;20026;-81
2022/07/02 06:54:51;;;;;;;0.77;0.35;;;;;;;14.74;100.00;99757.63;7389284;19;20015;-81
2022/07/02 06:57:17;;;;;;;4.22;0.10;;;;;;;14.72;100.00;99760.19;7397309;19;20055;-81
2022/07/02 06:59:43;;;;;;;0.20;0.10;;;;;;;14.68;100.00;99765.28;7399447;19;20022;-81
2022/07/02 07:02:09;;;;;;;0.10;0.08;;;;;;;14.73;100.00;99770.09;7397358;19;20014;-81
2022/07/02 07:04:36;;;;;;;0.10;0.10;;;;;;;14.71;100.00;99769.84;7397577;19;20460;-81
2022/07/02 07:07:05;;;;;;;0.30;0.10;;;;;;;14.77;100.00;99767.81;7398554;19;20011;-81
2022/07/02 07:09:34;;;;;;;0.30;0.20;;;;;;;14.82;100.00;99767.06;7401348;19;20515;-81
2022/07/02 07:12:01;;;;;;;0.13;0.10;;;;;;;14.89;100.00;99766.59;7395864;19;20019;-81
2022/07/02 07:14:28;;;;;;;6.22;0.63;;;;;;;14.86;100.00;99764.78;7397883;19;20034;-82
2022/07/02 07:16:55;;;;;;;0.10;0.00;;;;;;;14.87;100.00;99768.38;7398103;19;20032;-82
2022/07/02 07:19:21;;;;;;;0.10;0.00;;;;;;;14.78;100.00;99769.38;7400136;19;20038;-81
2022/07/02 07:21:47;;;;;;;0.10;0.00;;;;;;;14.80;100.00;99771.66;7396052;19;20018;-81
2022/07/02 07:24:13;;;;;;;0.45;0.30;;;;;;;14.78;100.00;99774.19;7397721;19;20018;-81
2022/07/02 07:26:39;;;;;;;0.40;0.20;;;;;;;14.86;100.00;99770.41;7398170;19;20014;-81
2022/07/02 07:29:06;;;;;;;0.10;0.10;;;;;;;14.95;100.00;99772.19;7399487;19;20017;-81
2022/07/02 07:31:34;;;;;;;0.17;0.10;;;;;;;15.12;100.00;99770.94;7393094;19;20018;-81
2022/07/02 07:34:00;;;;;;;0.20;0.10;;;;;;;15.19;100.00;99772.47;7396185;19;20096;-81
2022/07/02 07:36:26;;;;;;;0.35;0.30;;;;;;;15.20;100.00;99762.81;7395408;19;20502;-81
2022/07/02 07:38:53;;;;;;;0.20;0.10;;;;;;;15.29;100.00;99762.53;7401126;19;20018;-81
2022/07/02 07:41:21;;;;;;;0.90;0.10;;;;;;;15.38;100.00;99764.31;7396291;19;20010;-81
2022/07/02 07:43:48;;;;;;;0.10;0.10;;;;;;;15.39;100.00;99754.63;7397525;19;20018;-81
2022/07/02 07:46:15;;;;;;;0.17;0.17;;;;;;;15.40;100.00;99756.16;7396900;19;20365;-81
2022/07/02 07:48:41;;;;;;;0.30;0.10;;;;;;;15.41;100.00;99740.84;7396633;19;20495;-81
2022/07/02 07:51:07;;;;;;;0.13;0.13;;;;;;;15.54;100.00;99752.34;7395570;19;20081;-81
2022/07/02 07:53:34;;;;;;;0.20;0.20;;;;;;;15.78;100.00;99752.56;7395093;19;20348;-79
2022/07/02 07:56:00;;;;;;;1.85;0.10;;;;;;;15.75;100.00;99748.75;7394867;19;20016;-81
2022/07/02 07:58:26;;;;;;;0.20;0.10;;;;;;;15.75;100.00;99756.38;7395365;19;20014;-81
2022/07/02 08:00:53;;;;;;;0.30;0.05;;;;;;;15.68;100.00;99754.13;7393186;19;20022;-81
2022/07/02 08:03:19;;;;;;;0.63;0.10;;;;;;;15.64;100.00;99747.97;7394733;19;20038;-81
2022/07/02 08:05:53;;;;;;;1.00;0.10;;;;;;;15.66;100.00;99763.03;7395632;19;20078;-81
2022/07/02 08:08:21;;;;;;;0.10;0.00;;;;;;;15.76;100.00;99760.75;7396618;19;20034;-81
2022/07/02 08:10:47;;;;;;;1.67;0.20;;;;;;;15.81;100.00;99763.53;7393698;19;20022;-82
2022/07/02 08:13:13;;;;;;;0.10;0.00;;;;;;;16.01;100.00;99765.25;7396448;19;20010;-81
2022/07/02 08:15:39;;;;;;;0.20;0.17;;;;;;;16.02;100.00;99771.66;7393547;19;20051;-81
2022/07/02 08:18:06;;;;;;;0.20;0.10;;;;;;;15.90;100.00;99782.13;7393970;19;20018;-80
2022/07/02 08:20:32;;;;;;;0.25;0.20;;;;;;;15.81;100.00;99780.38;7394693;19;20018;-81
2022/07/02 08:22:59;;;;;;;0.52;0.22;;;;;;;15.76;100.00;99772.75;7395626;19;20490;-81
2022/07/02 08:25:25;;;;;;;0.10;0.10;;;;;;;15.71;100.00;99786.78;7394311;19;20023;-81
2022/07/02 08:27:51;;;;;;;0.10;0.10;;;;;;;15.91;100.00;99784.47;7394229;19;20010;-82
2022/07/02 08:30:17;;;;;;;0.10;0.10;;;;;;;16.08;100.00;99784.41;7399895;19;20019;-81
2022/07/02 08:32:43;;;;;;;0.30;0.10;;;;;;;16.15;100.00;99786.69;7396374;19;20019;-82
2022/07/02 08:35:10;;;;;;;0.20;0.10;;;;;;;16.25;100.00;99787.91;7394624;19;20017;-82
2022/07/02 08:37:36;;;;;;;0.20;0.00;;;;;;;16.64;100.00;99788.56;7396934;19;20114;-82
2022/07/02 08:40:02;;;;;;;0.44;0.18;;;;;;;16.62;100.00;99785.50;7249372;19;2934700;-81
2022/07/02 08:42:32;;;;;;;0.10;0.10;;;;;;;16.55;100.00;99786.03;7391244;19;20069;-82
2022/07/02 08:45:03;;;;;;;2.83;0.20;;;;;;;16.67;100.00;99776.25;7391332;19;20039;-83
2022/07/02 08:47:30;;;;;;;0.30;0.10;;;;;;;17.08;100.00;99775.50;7391651;19;20078;-82
2022/07/02 08:49:57;;;;;;;0.68;0.17;;;;;;;17.39;100.00;99766.56;7394369;19;20006;-83
2022/07/02 08:52:25;;;;;;;0.20;0.10;;;;;;;17.28;100.00;99769.47;7393888;19;20021;-82
2022/07/02 08:54:53;;;;;;;6.75;0.25;;;;;;;17.22;100.00;99765.91;7394742;19;20022;-83
2022/07/02 08:57:21;;;;;;;0.17;0.08;;;;;;;17.32;100.00;99772.78;7393650;19;20011;-83
2022/07/02 08:59:48;;;;;;;0.30;0.13;;;;;;;17.32;100.00;99767.91;7395840;19;20034;-83
2022/07/02 09:02:15;;;;;;;0.10;0.10;;;;;;;17.38;100.00;99765.03;7393534;19;20103;-83
2022/07/02 09:04:46;;;;;;;0.80;0.10;;;;;;;17.61;100.00;99760.75;7394530;19;20019;-82
2022/07/02 09:07:14;;;;;;;0.00;0.00;;;;;;;17.61;100.00;99769.19;7393311;19;20018;-83
2022/07/02 09:09:42;;;;;;;0.35;0.10;;;;;;;17.30;100.00;99772.53;7396250;19;20634;-82
2022/07/02 09:12:12;;;;;;;1.02;0.22;;;;;;;17.11;100.00;99768.81;7392786;19;20456;-82
2022/07/02 09:14:39;;;;;;;;;;;;;;;16.93;100.00;99775.88;7394976;19;20042;-83
2022/07/02 09:17:07;;;;;;;0.10;0.00;;;;;;;16.73;100.00;99778.28;7393344;19;19922;-82
2022/07/02 09:19:34;;;;;;;0.00;0.00;;;;;;;16.39;100.00;99781.25;7392324;19;20036;-82
2022/07/02 09:22:00;;;;;;;0.10;0.10;;;;;;;16.64;100.00;99776.53;7392103;19;20025;-81
2022/07/02 09:24:36;;;;;;;0.10;0.10;;;;;;;16.83;100.00;99776.72;7392697;19;20046;-81
2022/07/02 09:27:07;;;;;;;0.10;0.00;;;;;;;17.16;100.00;99776.47;7396401;19;20018;-81
2022/07/02 09:30:00;;;;;;;3.75;0.13;;;;;;;17.53;100.00;99762.63;7399557;19;20010;-82
2022/07/02 09:32:26;;;;;;;0.10;0.10;;;;;;;17.71;100.00;99769.63;7393315;19;20018;-81
2022/07/02 09:34:53;;;;;;;0.95;0.10;;;;;;;18.14;100.00;99771.22;7392742;19;20018;-82
2022/07/02 09:37:22;;;;;;;0.10;0.10;;;;;;;18.33;100.00;99778.94;7395240;19;20022;-82
2022/07/02 09:40:02;;;;;;;0.38;0.05;;;;;;;18.47;100.00;99769.31;7397272;19;20342;-82
2022/07/02 09:42:30;;;;;;;;;;;;;;;18.43;100.00;99789.31;7393362;19;20031;-84
2022/07/02 09:44:57;;;;;;;0.75;0.15;;;;;;;18.48;100.00;99773.66;7391247;19;19925;-85
2022/07/02 09:47:33;;;;;;;1.65;0.52;;;;;;;18.58;100.00;99777.66;7391751;19;20014;-85
2022/07/02 09:50:08;;;;;;;0.10;0.00;;;;;;;18.73;100.00;99773.06;7396920;19;20037;-84
2022/07/02 09:52:36;;;;;;;0.03;0.03;;;;;;;19.17;100.00;99776.53;7391865;19;20018;-86
2022/07/02 09:55:03;;;;;;;0.10;0.00;;;;;;;19.33;100.00;99784.75;7392455;19;20384;-85
2022/07/02 09:57:29;;;;;;;0.17;0.17;;;;;;;19.30;100.00;99785.81;7391128;19;20078;-86
2022/07/02 10:00:06;;;;;;;0.10;0.00;;;;;;;19.14;100.00;99786.09;7395456;19;20037;-86
2022/07/02 10:02:36;;;;;;;2.15;0.17;;;;;;;19.09;100.00;99789.75;7393893;19;20026;-87
2022/07/02 10:05:05;;;;;;;0.32;0.13;;;;;;;18.93;100.00;99788.69;7392865;19;20067;-86
2022/07/02 10:07:32;;;;;;;0.30;0.10;;;;;;;19.03;100.00;99778.56;7392398;19;20043;-84
2022/07/02 10:10:02;;;;;;;1.33;0.30;;;;;;;19.39;100.00;99776.97;7394792;19;20094;-85
2022/07/02 10:12:28;;;;;;;0.75;0.00;;;;;;;19.61;100.00;99787.91;7392022;19;20018;-86
2022/07/02 10:14:57;;;;;;;1.95;0.20;;;;;;;19.80;100.00;99784.22;7391036;19;20025;-85
2022/07/02 10:17:24;;;;;;;0.10;0.00;;;;;;;20.25;100.00;99779.28;7393066;19;20094;-87
2022/07/02 10:19:55;;;;;;;0.88;0.10;;;;;;;20.20;100.00;99780.94;7394447;19;20497;-85
2022/07/02 10:22:22;;;;;;;0.28;0.08;;;;;;;19.98;100.00;99780.56;7392874;19;20019;-84
2022/07/02 10:24:50;;;;;;;0.35;0.13;;;;;;;19.90;100.00;99779.69;7391787;19;20023;-86
2022/07/02 10:27:18;;;;;;;0.38;0.05;;;;;;;19.43;100.00;99777.41;7397687;19;20014;-86
2022/07/02 10:29:45;;;;;;;0.10;0.00;;;;;;;19.06;100.00;99766.16;7395502;19;20073;-86
2022/07/02 10:32:26;;;;;;;0.75;0.20;;;;;;;18.53;100.00;99782.06;7394069;19;20018;-87
2022/07/02 10:35:11;;;;;;;0.20;0.10;;;;;;;18.28;100.00;99788.25;7397697;19;20404;-87
2022/07/02 10:37:39;;;;;;;0.10;0.10;;;;;;;18.24;100.00;99787.75;7400177;19;20336;-88
2022/07/02 10:40:06;;;;;;;0.30;0.30;;;;;;;18.53;100.00;99786.94;7403236;19;20487;-86
2022/07/02 10:42:39;;;;;;;1.10;0.10;;;;;;;18.75;100.00;99792.28;7398606;19;20490;-86
2022/07/02 10:45:24;;;;;;;1.15;0.10;;;;;;;18.60;100.00;99777.88;7399623;19;20018;-87
2022/07/02 10:48:03;;;;;;;0.20;0.10;;;;;;;18.46;100.00;99781.88;7399741;19;20021;-87
2022/07/02 10:50:37;;;;;;;1.55;0.20;;;;;;;18.79;100.00;99775.81;7402144;19;20018;-86
2022/07/02 10:53:06;;;;;;;0.30;0.20;;;;;;;19.11;100.00;99765.34;7398042;19;20096;-86
2022/07/02 10:55:32;;;;;;;0.10;0.10;;;;;;;19.18;100.00;99775.25;7398004;19;20018;-87
2022/07/02 10:58:07;;;;;;;0.45;0.00;;;;;;;19.08;100.00;99780.50;7397286;19;20025;-85
2022/07/02 11:00:36;;;;;;;0.08;0.00;;;;;;;18.96;100.00;99784.03;7397075;19;20022;-86
2022/07/02 11:03:23;;;;;;;2.20;0.40;;;;;;;18.98;100.00;99799.16;7397758;19;20063;-86
2022/07/02 11:06:23;;;;;;;0.10;0.00;;;;;;;18.91;100.00;99788.47;7396890;19;20023;-86
2022/07/02 11:08:52;;;;;;;3.10;0.10;;;;;;;18.85;100.00;99785.72;7399682;19;20511;-87
2022/07/02 11:11:29;;;;;;;0.10;0.00;;;;;;;19.00;100.00;99782.44;7396305;19;20035;-86
2022/07/02 11:14:00;;;;;;;2.63;0.20;;;;;;;19.20;100.00;99781.09;7399846;19;20014;-87
2022/07/02 11:16:38;;;;;;;0.10;0.00;;;;;;;19.58;100.00;99783.31;7395508;19;20025;-86
2022/07/02 11:19:17;;;;;;;0.98;0.03;;;;;;;19.90;100.00;99774.03;7399726;19;20357;-87
2022/07/02 11:21:44;;;;;;;0.90;0.22;;;;;;;19.99;100.00;99779.28;7395500;19;20015;-85
2022/07/02 11:24:14;;;;;;;0.10;0.10;;;;;;;20.10;100.00;99788.28;7397432;19;20019;-87
2022/07/02 11:26:42;;;;;;;1.50;0.23;;;;;;;20.16;100.00;99779.72;7396807;19;20033;-85
2022/07/02 11:29:09;;;;;;;0.80;0.10;;;;;;;20.28;100.00;99775.38;7399585;19;20437;-89
2022/07/02 11:31:38;;;;;;;0.93;0.25;;;;;;;20.57;100.00;99782.00;7396873;19;20018;-87
2022/07/02 11:34:04;;;;;;;0.70;0.10;;;;;;;20.81;100.00;99788.13;7398517;19;20015;-88